Terminal Aerodrome Forecast
Issued by NWS

Home | Current Version | Previous Version | Text Only | Print | Product List | Glossary On
Versions: 1 2 3 4 5 6 7 8 9 10 11 12 13 14
000
FTUS46 KSEW 260210 AAA
TAFHQM
TAF AMD
KHQM 260210Z 2602/2624 08012KT 4SM -RA BR BKN015 OVC030
      TEMPO 2602/2604 2SM -RA BR SCT008 BKN012 OVC022
     FM260400 18014G23KT P6SM -SHRA BKN012 OVC030
     FM260600 24013KT P6SM VCSH BKN015 BKN035
     FM261300 25012KT P6SM VCSH OVC022
     FM261600 28012KT P6SM VCSH BKN030=

USA.gov is the U.S. government's official web portal to all federal, state and local government web resources and services.